Time;durP1;ratioP1;P1;durP2;ratioP2;P2;SDS_P1;SDS_P2;PMS_P1;PMS_P2;Temp;Humidity;BMP_temperature;BMP_pressure;BME280_temperature;BME280_humidity;BME280_pressure;Samples;Min_cycle;Max_cycle;Signal;HPM_P1;HPM_P2
2022/08/06 00:00:56;;;;;;;1.35;0.98;;;;;;;17.68;75.21;100522.94;10461949;28;20045;-72
2022/08/06 00:05:58;;;;;;;1.40;0.90;;;;;;;17.36;78.71;100538.78;10459861;28;20068;-72
2022/08/06 00:11:00;;;;;;;1.77;1.10;;;;;;;17.42;78.12;100534.94;10460985;28;20103;-72
2022/08/06 00:16:03;;;;;;;1.42;1.20;;;;;;;17.28;80.27;100503.78;10460869;28;20033;-72
2022/08/06 00:21:25;;;;;;;3.35;1.40;;;;;;;17.42;79.83;100525.16;10442410;28;20482;-71
2022/08/06 00:26:43;;;;;;;2.75;1.45;;;;;;;17.18;81.57;100505.19;10461218;28;20053;-72
2022/08/06 00:32:05;;;;;;;2.67;1.70;;;;;;;17.19;82.59;100530.81;10460697;28;20037;-72
2022/08/06 00:37:12;;;;;;;3.05;1.80;;;;;;;17.05;84.29;100521.75;10460750;28;20052;-73
2022/08/06 00:42:20;;;;;;;2.67;1.67;;;;;;;17.13;85.16;100505.41;10460452;28;20033;-73
2022/08/06 00:47:21;;;;;;;2.90;2.00;;;;;;;16.86;86.66;100466.06;10460077;28;20048;-73
2022/08/06 00:52:45;;;;;;;1.80;1.70;;;;;;;16.92;86.73;100438.34;10460327;28;20178;-74
2022/08/06 00:57:48;;;;;;;2.17;1.98;;;;;;;17.12;87.68;100459.41;10442036;28;20049;-73
2022/08/06 01:02:51;;;;;;;2.10;1.90;;;;;;;17.33;84.98;100507.91;10459328;28;20036;-73
2022/08/06 01:07:54;;;;;;;3.58;2.20;;;;;;;17.27;86.60;100521.53;10460579;28;20044;-73
2022/08/06 01:12:58;;;;;;;2.40;2.03;;;;;;;17.25;85.82;100531.34;10459337;28;20490;-72
2022/08/06 01:18:13;;;;;;;3.33;1.70;;;;;;;17.22;84.40;100525.34;10460510;28;20116;-73
2022/08/06 01:23:33;;;;;;;2.97;2.15;;;;;;;17.21;85.05;100539.56;10459999;28;20033;-74
2022/08/06 01:28:49;;;;;;;3.17;1.90;;;;;;;17.07;86.46;100541.13;10445941;28;20052;-72
2022/08/06 01:33:58;;;;;;;1.80;1.70;;;;;;;17.17;86.47;100549.47;10444173;28;20057;-74
2022/08/06 01:39:01;;;;;;;3.38;2.13;;;;;;;17.19;85.53;100560.91;10462676;28;20128;-74
2022/08/06 01:44:05;;;;;;;3.35;2.75;;;;;;;17.00;88.70;100546.81;10460443;28;20414;-75
2022/08/06 01:49:20;;;;;;;3.28;2.95;;;;;;;16.98;87.79;100546.03;10460413;28;20055;-75
2022/08/06 01:54:45;;;;;;;2.77;2.53;;;;;;;17.12;86.06;100555.03;10442716;28;20498;-76
2022/08/06 01:59:55;;;;;;;2.95;2.00;;;;;;;17.20;82.61;100562.63;10460379;28;20043;-74
2022/08/06 02:05:00;;;;;;;2.72;1.73;;;;;;;17.04;82.90;100565.16;10458406;28;20120;-74
2022/08/06 02:10:13;;;;;;;2.70;2.15;;;;;;;16.89;83.45;100558.84;10463547;28;20045;-74
2022/08/06 02:15:27;;;;;;;1.83;1.50;;;;;;;16.89;83.29;100571.25;10467179;28;20041;-71
2022/08/06 02:20:53;;;;;;;2.33;1.50;;;;;;;16.86;82.08;100568.75;10452909;28;20098;-75
2022/08/06 02:25:55;;;;;;;1.93;1.47;;;;;;;16.54;81.95;100573.78;10467691;28;20388;-76
2022/08/06 02:30:58;;;;;;;1.77;1.38;;;;;;;16.49;80.74;100594.38;10467362;28;20067;-75
2022/08/06 02:36:20;;;;;;;1.30;0.90;;;;;;;16.58;77.38;100591.28;10468581;28;20059;-74
2022/08/06 02:41:33;;;;;;;2.17;1.33;;;;;;;16.31;78.80;100601.41;10469856;28;20475;-76
2022/08/06 02:47:02;;;;;;;1.90;0.90;;;;;;;16.23;77.62;100610.66;10451768;28;20037;-73
2022/08/06 02:52:21;;;;;;;2.47;1.20;;;;;;;16.30;75.86;100610.31;10470146;28;20102;-75
2022/08/06 02:57:40;;;;;;;4.72;1.17;;;;;;;16.24;77.04;100620.34;10466028;28;20045;-74
2022/08/06 03:02:55;;;;;;;2.08;0.98;;;;;;;16.31;75.14;100632.41;10466526;28;20520;-73
2022/08/06 03:07:58;;;;;;;1.25;1.10;;;;;;;16.36;75.58;100635.69;10465046;28;20429;-73
2022/08/06 03:13:04;;;;;;;1.95;1.00;;;;;;;16.31;75.61;100653.63;10464767;28;20052;-73
2022/08/06 03:18:15;;;;;;;1.20;0.90;;;;;;;16.30;76.34;100658.06;10446150;28;20091;-73
2022/08/06 03:23:17;;;;;;;1.00;1.00;;;;;;;16.29;75.33;100664.31;10463350;28;20037;-73
2022/08/06 03:28:19;;;;;;;1.63;0.88;;;;;;;16.08;74.01;100681.19;10462723;28;20071;-73
2022/08/06 03:33:24;;;;;;;1.35;0.85;;;;;;;15.98;71.52;100690.44;10463191;28;20045;-73
2022/08/06 03:38:55;;;;;;;1.38;0.60;;;;;;;15.77;70.32;100700.22;10462879;28;20048;-73
2022/08/06 03:43:56;;;;;;;1.48;0.52;;;;;;;15.77;68.40;100719.63;10462393;28;20052;-74
2022/08/06 03:49:10;;;;;;;1.58;0.40;;;;;;;15.74;67.50;100722.41;10462486;28;20094;-73
2022/08/06 03:54:17;;;;;;;1.75;0.43;;;;;;;15.53;68.27;100742.66;10463205;28;20132;-74
2022/08/06 03:59:32;;;;;;;2.22;0.55;;;;;;;15.39;67.17;100743.22;10462863;28;20048;-72
2022/08/06 04:04:46;;;;;;;0.75;0.40;;;;;;;15.44;66.38;100744.84;10462756;28;20037;-72
2022/08/06 04:09:49;;;;;;;2.25;0.40;;;;;;;15.19;66.80;100755.56;10462011;28;20138;-73
2022/08/06 04:15:03;;;;;;;3.72;0.40;;;;;;;15.13;67.36;100762.78;10461828;28;20041;-73
2022/08/06 04:20:10;;;;;;;;;;;;;;;15.21;66.49;100770.44;10462380;28;20041;-72
2022/08/06 04:25:12;;;;;;;1.05;0.30;;;;;;;14.98;66.50;100765.19;10460896;28;19925;-74
2022/08/06 04:30:15;;;;;;;0.80;0.50;;;;;;;15.00;67.00;100782.72;10461016;28;20166;-72
2022/08/06 04:35:17;;;;;;;0.88;0.20;;;;;;;14.92;67.38;100783.94;10459766;28;20037;-73
2022/08/06 04:40:40;;;;;;;0.50;0.30;;;;;;;15.01;67.23;100786.25;10459873;28;20045;-73
2022/08/06 04:45:55;;;;;;;0.50;0.20;;;;;;;15.09;66.38;100792.09;10461242;28;20064;-73
2022/08/06 04:51:17;;;;;;;1.27;0.38;;;;;;;15.24;65.42;100803.91;10445042;28;20049;-72
2022/08/06 04:56:40;;;;;;;1.38;0.30;;;;;;;15.35;64.61;100810.50;10459703;28;20047;-73
2022/08/06 05:01:50;;;;;;;1.73;0.40;;;;;;;15.44;64.96;100819.88;10459352;28;20091;-73
2022/08/06 05:07:15;;;;;;;0.98;0.30;;;;;;;15.58;64.39;100820.22;10459380;28;20532;-73
2022/08/06 05:12:30;;;;;;;0.77;0.40;;;;;;;15.82;63.77;100828.97;10442803;28;20403;-73
2022/08/06 05:17:38;;;;;;;1.03;0.20;;;;;;;15.88;63.52;100826.06;10459933;28;20076;-73
2022/08/06 05:22:55;;;;;;;0.90;0.32;;;;;;;15.96;64.37;100839.00;10459863;28;20091;-73
2022/08/06 05:28:06;;;;;;;1.65;0.30;;;;;;;16.10;63.08;100827.84;10458015;28;20044;-73
2022/08/06 05:33:22;;;;;;;0.73;0.32;;;;;;;15.93;62.07;100841.78;10458224;28;20045;-72
2022/08/06 05:38:27;;;;;;;1.17;0.30;;;;;;;16.32;62.36;100838.41;10458515;28;20063;-73
2022/08/06 05:43:40;;;;;;;1.13;0.20;;;;;;;16.68;60.49;100858.97;10460090;28;20048;-72
2022/08/06 05:49:15;;;;;;;0.95;0.40;;;;;;;16.15;61.51;100862.97;10468385;28;20040;-74
2022/08/06 05:54:50;;;;;;;3.27;0.57;;;;;;;16.45;61.39;100868.78;10467479;28;20529;-73
2022/08/06 06:00:09;;;;;;;0.52;0.20;;;;;;;16.54;60.55;100862.22;10467270;28;20298;-73
2022/08/06 06:05:31;;;;;;;2.67;0.20;;;;;;;16.41;60.95;100861.88;10448148;28;20041;-73
2022/08/06 06:10:53;;;;;;;1.40;0.30;;;;;;;16.98;59.37;100859.44;10465737;28;20478;-73
2022/08/06 06:16:27;;;;;;;1.40;0.40;;;;;;;16.81;58.85;100873.47;10465204;28;20047;-72
2022/08/06 06:21:44;;;;;;;1.58;0.55;;;;;;;16.75;59.04;100889.66;10465839;28;20045;-73
2022/08/06 06:26:54;;;;;;;1.95;0.40;;;;;;;16.72;59.84;100893.31;10466486;28;20040;-73
2022/08/06 06:32:32;;;;;;;1.27;0.50;;;;;;;16.56;59.74;100892.22;10467317;28;20437;-74
2022/08/06 06:37:39;;;;;;;1.10;0.28;;;;;;;16.97;58.45;100903.72;10299781;28;20141;-72
2022/08/06 06:42:58;;;;;;;1.02;0.22;;;;;;;17.37;57.83;100901.91;10300377;28;20046;-73
2022/08/06 06:48:08;;;;;;;2.13;0.30;;;;;;;17.96;56.86;100903.56;10300282;28;20097;-73
2022/08/06 06:53:14;;;;;;;1.30;0.30;;;;;;;18.00;56.46;100907.81;10299448;28;20054;-73
2022/08/06 06:58:32;;;;;;;0.77;0.30;;;;;;;17.90;54.89;100907.38;10354423;23;20092;-74
2022/08/06 07:03:37;;;;;;;3.20;0.40;;;;;;;17.65;55.98;100923.59;10453381;28;20032;-73
2022/08/06 07:08:47;;;;;;;2.17;0.38;;;;;;;17.74;56.97;100913.50;10485825;28;20044;-72
2022/08/06 07:13:53;;;;;;;2.08;0.50;;;;;;;17.60;56.19;100914.13;10503480;28;20064;-72
2022/08/06 07:19:01;;;;;;;1.33;0.40;;;;;;;17.48;57.36;100915.56;10484710;28;20052;-74
2022/08/06 07:24:05;;;;;;;1.67;0.40;;;;;;;17.66;55.73;100919.16;10484599;28;20413;-73
2022/08/06 07:29:28;;;;;;;1.70;0.50;;;;;;;17.71;55.84;100927.81;10503029;28;20051;-73
2022/08/06 07:34:50;;;;;;;1.55;0.60;;;;;;;18.01;55.89;100925.47;10503481;28;20052;-73
2022/08/06 07:39:55;;;;;;;0.77;0.32;;;;;;;18.07;54.51;100925.19;10503921;28;20068;-74
2022/08/06 07:45:01;;;;;;;2.50;0.50;;;;;;;17.98;54.77;100924.78;10501740;28;20040;-73
2022/08/06 07:50:04;;;;;;;3.13;0.50;;;;;;;18.29;54.46;100927.66;10484553;28;20127;-73
2022/08/06 07:55:10;;;;;;;1.70;0.43;;;;;;;18.13;52.60;100932.88;10500397;28;20036;-74
2022/08/06 08:00:12;;;;;;;5.53;0.50;;;;;;;18.29;53.47;100932.13;10499266;28;20374;-74
2022/08/06 08:11:02;;;;;;;0.67;0.20;;;;;;;19.01;50.65;100924.00;10484947;28;20060;-73
2022/08/06 08:16:06;;;;;;;1.45;0.30;;;;;;;19.08;49.46;100928.09;10500512;28;20104;-73
2022/08/06 08:21:10;;;;;;;2.45;0.40;;;;;;;19.57;48.19;100929.91;10501899;28;20099;-73
2022/08/06 08:26:14;;;;;;;1.77;0.30;;;;;;;19.94;47.35;100939.41;10498718;28;20043;-72
2022/08/06 08:31:22;;;;;;;1.20;0.30;;;;;;;19.05;48.23;100936.22;10500346;28;20094;-71
2022/08/06 08:36:27;;;;;;;1.42;0.30;;;;;;;19.02;47.42;100940.84;10499716;28;20036;-71
2022/08/06 08:41:43;;;;;;;0.70;0.30;;;;;;;19.33;46.53;100937.44;10499191;28;20044;-71
2022/08/06 08:46:51;;;;;;;1.25;0.30;;;;;;;19.96;44.57;100947.31;10481223;28;20101;-71
2022/08/06 08:52:02;;;;;;;0.77;0.20;;;;;;;19.42;45.32;100943.13;10481418;28;20093;-71
2022/08/06 08:57:15;;;;;;;1.77;0.50;;;;;;;19.53;46.06;100937.22;10480940;28;20105;-71
2022/08/06 09:02:41;;;;;;;1.45;0.40;;;;;;;19.97;45.34;100938.41;10500155;28;20473;-72
2022/08/06 09:07:51;;;;;;;5.90;0.45;;;;;;;20.08;45.84;100941.31;10499272;28;20405;-71
2022/08/06 09:13:02;;;;;;;1.27;0.20;;;;;;;20.32;41.46;100939.91;10498713;28;20044;-71
2022/08/06 09:18:25;;;;;;;0.77;0.20;;;;;;;20.12;42.88;100945.53;10498469;28;20114;-71
2022/08/06 09:23:30;;;;;;;0.87;0.27;;;;;;;20.41;42.75;100944.72;10481115;28;20044;-71
2022/08/06 09:28:52;;;;;;;0.68;0.17;;;;;;;20.48;42.71;100933.69;10498680;28;20044;-71
2022/08/06 09:33:53;;;;;;;1.58;0.40;;;;;;;21.21;42.21;100934.63;10497764;28;20413;-72
2022/08/06 09:39:15;;;;;;;1.10;0.10;;;;;;;21.92;40.24;100923.00;10480242;28;20050;-71
2022/08/06 09:44:24;;;;;;;0.68;0.22;;;;;;;21.62;40.68;100932.03;10464290;28;20071;-72
2022/08/06 09:49:45;;;;;;;1.55;0.20;;;;;;;22.09;38.69;100927.22;10498391;28;20045;-72
2022/08/06 09:55:01;;;;;;;1.17;0.32;;;;;;;21.83;38.51;100931.63;10497588;28;20115;-72
2022/08/06 10:00:29;;;;;;;1.30;0.28;;;;;;;22.61;37.55;100921.13;10498026;28;20052;-72
2022/08/06 10:05:34;;;;;;;1.27;0.20;;;;;;;22.96;36.99;100913.38;10497242;28;20067;-69
2022/08/06 10:10:51;;;;;;;0.73;0.20;;;;;;;22.90;37.76;100921.84;10497802;28;20490;-70
2022/08/06 10:15:55;;;;;;;1.67;0.30;;;;;;;22.84;39.17;100914.16;10497151;28;20482;-71
2022/08/06 10:21:05;;;;;;;1.55;0.32;;;;;;;22.82;38.25;100914.28;10496987;28;20493;-73
2022/08/06 10:26:10;;;;;;;0.90;0.20;;;;;;;23.45;37.42;100906.34;10497463;28;20481;-72
2022/08/06 10:31:15;;;;;;;4.38;0.30;;;;;;;23.90;35.37;100903.03;10500502;28;20053;-70
2022/08/06 10:36:27;;;;;;;1.58;0.30;;;;;;;23.73;36.47;100899.88;10504185;28;20044;-70
2022/08/06 10:41:38;;;;;;;3.03;0.47;;;;;;;22.44;38.47;100897.28;10487603;28;20450;-68
2022/08/06 10:47:02;;;;;;;1.60;0.37;;;;;;;22.95;37.51;100892.88;10503498;28;20060;-70
2022/08/06 10:52:06;;;;;;;1.53;0.20;;;;;;;24.21;35.60;100886.47;10503605;28;20478;-71
2022/08/06 10:57:12;;;;;;;1.42;0.40;;;;;;;24.54;35.24;100881.25;10484775;28;20325;-70
2022/08/06 11:02:35;;;;;;;0.75;0.30;;;;;;;24.89;33.18;100877.66;10503056;28;20079;-69
2022/08/06 11:08:20;;;;;;;1.30;0.30;;;;;;;24.29;34.98;100878.69;10502437;28;20140;-72
2022/08/06 11:14:01;;;;;;;1.02;0.30;;;;;;;24.98;34.10;100870.72;10281261;28;20109;-73
2022/08/06 11:19:05;;;;;;;3.67;0.40;;;;;;;24.76;34.46;100868.84;10293008;28;20051;-72
2022/08/06 11:24:09;;;;;;;1.20;0.32;;;;;;;24.90;32.70;100864.09;10293835;28;20099;-71
2022/08/06 11:29:12;;;;;;;1.63;0.20;;;;;;;25.20;32.64;100868.06;10277681;28;20058;-72
2022/08/06 11:34:18;;;;;;;0.47;0.10;;;;;;;24.60;32.14;100859.25;10292351;28;20050;-73
2022/08/06 11:40:05;;;;;;;1.35;0.30;;;;;;;24.26;31.92;100854.72;10279353;28;20055;-72
2022/08/06 11:45:07;;;;;;;0.75;0.20;;;;;;;24.45;31.43;100855.09;10295862;28;20117;-71
2022/08/06 11:50:29;;;;;;;0.88;0.10;;;;;;;24.31;32.04;100860.63;10501223;28;20056;-72
2022/08/06 11:55:31;;;;;;;1.17;0.30;;;;;;;24.70;32.12;100847.78;10501093;28;20041;-72
2022/08/06 12:01:02;;;;;;;1.77;0.17;;;;;;;24.19;33.08;100845.44;10500643;28;20044;-73
2022/08/06 12:06:25;;;;;;;0.15;0.10;;;;;;;24.48;31.27;100849.50;10500732;28;20044;-73
2022/08/06 12:11:33;;;;;;;1.60;0.22;;;;;;;24.31;30.57;100844.50;10482090;28;20605;-73
2022/08/06 12:16:39;;;;;;;0.45;0.10;;;;;;;24.29;30.66;100841.06;10499904;28;20044;-76
2022/08/06 12:21:51;;;;;;;0.20;0.20;;;;;;;24.81;30.58;100837.06;10500451;28;20051;-71
2022/08/06 12:26:57;;;;;;;1.10;0.32;;;;;;;24.80;30.50;100838.91;10499500;28;20450;-71
2022/08/06 12:31:59;;;;;;;1.15;0.13;;;;;;;24.49;30.52;100839.59;10499968;28;20498;-71
2022/08/06 12:37:01;;;;;;;0.40;0.20;;;;;;;24.65;29.49;100824.81;10499088;28;20400;-71
2022/08/06 12:42:04;;;;;;;1.25;0.20;;;;;;;25.16;29.46;100829.78;10499009;28;20497;-71
2022/08/06 12:47:12;;;;;;;0.50;0.10;;;;;;;24.86;28.91;100822.28;10498411;28;20071;-71
2022/08/06 12:52:17;;;;;;;0.40;0.17;;;;;;;24.80;30.04;100814.72;10498745;28;20052;-69
2022/08/06 12:57:25;;;;;;;0.50;0.10;;;;;;;25.32;28.72;100804.31;10498280;28;20055;-70
2022/08/06 13:03:07;;;;;;;1.27;0.20;;;;;;;25.79;28.38;100799.56;10506340;28;20044;-71
2022/08/06 13:08:11;;;;;;;0.43;0.10;;;;;;;25.47;28.20;100804.91;10526782;28;20044;-70
2022/08/06 13:13:12;;;;;;;0.50;0.17;;;;;;;25.37;28.64;100815.56;10544911;28;20485;-70
2022/08/06 13:18:35;;;;;;;0.95;0.30;;;;;;;25.02;28.29;100813.84;10544703;28;20044;-71
2022/08/06 13:23:54;;;;;;;0.20;0.10;;;;;;;25.37;28.06;100818.25;10545933;28;20396;-70
2022/08/06 13:29:17;;;;;;;0.98;0.20;;;;;;;25.63;27.83;100800.81;10546099;28;20446;-70
2022/08/06 13:34:52;;;;;;;1.17;0.20;;;;;;;25.05;27.98;100805.53;10545749;28;20548;-70
2022/08/06 13:39:55;;;;;;;;;;;;;;;24.75;28.56;100805.31;10528502;28;20112;-70
2022/08/06 13:44:56;;;;;;;0.28;0.10;;;;;;;24.77;29.32;100803.34;10545800;28;19931;-71
2022/08/06 13:49:58;;;;;;;0.35;0.20;;;;;;;24.87;28.28;100799.78;10526190;28;20439;-70
2022/08/06 13:55:07;;;;;;;0.65;0.20;;;;;;;24.99;29.42;100792.56;10525428;28;20501;-70
2022/08/06 14:00:10;;;;;;;0.50;0.10;;;;;;;24.69;28.76;100792.31;10543783;28;20047;-70
2022/08/06 14:05:17;;;;;;;0.28;0.10;;;;;;;24.40;29.44;100798.16;10545413;28;20127;-70
2022/08/06 14:10:23;;;;;;;0.77;0.20;;;;;;;24.01;28.99;100793.97;10550585;28;20054;-70
2022/08/06 14:15:33;;;;;;;0.50;0.17;;;;;;;24.13;29.57;100788.53;10550042;28;20040;-70
2022/08/06 14:20:43;;;;;;;1.30;0.10;;;;;;;24.33;28.92;100791.50;10549782;28;20078;-71
2022/08/06 14:25:44;;;;;;;0.70;0.03;;;;;;;24.28;29.34;100788.31;10549326;28;20047;-71
2022/08/06 14:31:04;;;;;;;1.33;0.20;;;;;;;24.23;29.24;100787.81;10548937;28;20086;-69
2022/08/06 14:36:09;;;;;;;0.87;0.20;;;;;;;24.32;28.99;100779.91;10547526;28;20090;-70
2022/08/06 14:46:51;;;;;;;1.02;0.17;;;;;;;24.02;29.33;100777.72;10547999;28;20538;-70
2022/08/06 14:51:53;;;;;;;1.15;0.17;;;;;;;23.87;29.27;100777.09;10546608;28;20465;-70
2022/08/06 14:57:15;;;;;;;0.60;0.22;;;;;;;23.85;29.67;100773.63;10548188;28;20459;-71
2022/08/06 15:02:17;;;;;;;1.23;0.10;;;;;;;23.72;29.50;100770.16;10546593;28;20058;-72
2022/08/06 15:07:22;;;;;;;1.30;0.35;;;;;;;23.97;28.88;100766.50;10546933;28;20051;-71
2022/08/06 15:12:27;;;;;;;1.13;0.10;;;;;;;23.71;29.18;100765.78;10548598;28;20070;-70
2022/08/06 15:17:43;;;;;;;0.47;0.13;;;;;;;23.44;28.96;100765.97;10547466;28;20461;-70
2022/08/06 15:23:04;;;;;;;0.68;0.15;;;;;;;23.54;29.51;100769.69;10547004;28;20523;-68
2022/08/06 15:28:06;;;;;;;0.75;0.30;;;;;;;23.71;29.36;100773.84;10548317;28;20109;-70
2022/08/06 15:33:11;;;;;;;0.40;0.13;;;;;;;23.47;29.72;100771.13;10548385;28;20089;-69
2022/08/06 15:38:13;;;;;;;0.52;0.10;;;;;;;23.31;29.42;100770.53;10548781;28;20122;-71
2022/08/06 15:43:19;;;;;;;0.47;0.20;;;;;;;23.44;29.19;100759.75;10547706;28;20459;-70
2022/08/06 15:48:28;;;;;;;1.92;1.58;;;;;;;23.41;30.02;100764.38;10548055;28;20119;-70
2022/08/06 15:53:30;;;;;;;0.35;0.15;;;;;;;24.64;28.22;100753.22;10547172;28;20040;-68
2022/08/06 15:58:31;;;;;;;0.80;0.52;;;;;;;25.97;26.42;100754.94;10545873;28;20040;-69
2022/08/06 16:03:33;;;;;;;2.22;1.50;;;;;;;25.67;27.17;100764.56;10546985;28;20044;-70
2022/08/06 16:08:55;;;;;;;1.27;0.28;;;;;;;25.15;27.10;100754.56;10546513;28;20044;-69
2022/08/06 16:14:01;;;;;;;;;;;;;;;24.13;29.04;100771.56;10547356;28;20054;-72
2022/08/06 16:19:04;;;;;;;1.23;0.20;;;;;;;23.59;29.17;100772.03;10548115;28;19924;-70
2022/08/06 16:24:22;;;;;;;3.25;0.93;;;;;;;23.42;30.00;100775.97;10546537;28;20036;-70
2022/08/06 16:29:26;;;;;;;1.50;1.35;;;;;;;23.42;30.08;100765.25;10545240;28;20053;-69
2022/08/06 16:34:29;;;;;;;21.08;19.67;;;;;;;23.15;30.81;100766.31;10546032;28;20044;-70
2022/08/06 16:39:37;;;;;;;66.57;32.28;;;;;;;23.03;30.77;100771.69;10544202;28;20070;-70
2022/08/06 16:44:39;;;;;;;18.40;16.05;;;;;;;22.94;31.08;100778.56;10543628;28;20044;-69
2022/08/06 16:50:00;;;;;;;0.68;0.68;;;;;;;22.79;30.64;100769.75;10543670;28;20056;-70
2022/08/06 16:55:22;;;;;;;2.40;2.20;;;;;;;22.65;31.21;100768.06;10544486;28;20040;-70
2022/08/06 17:00:25;;;;;;;1.48;1.38;;;;;;;22.53;31.56;100762.69;10543067;28;20047;-70
2022/08/06 17:05:46;;;;;;;1.73;0.60;;;;;;;22.46;31.77;100773.00;10544344;28;20479;-70
2022/08/06 17:10:53;;;;;;;2.25;1.00;;;;;;;22.60;31.65;100772.88;10545754;28;20415;-70
2022/08/06 17:16:00;;;;;;;0.82;0.60;;;;;;;22.33;31.87;100772.13;10544245;28;20086;-70
2022/08/06 17:21:02;;;;;;;1.98;0.25;;;;;;;22.27;31.81;100765.38;10543504;28;20048;-70
2022/08/06 17:26:08;;;;;;;5.63;0.57;;;;;;;22.18;31.91;100768.69;10544818;28;20412;-71
2022/08/06 17:31:30;;;;;;;1.58;0.57;;;;;;;22.25;31.76;100769.13;10543931;28;20105;-68
2022/08/06 17:36:52;;;;;;;3.40;0.70;;;;;;;22.12;31.83;100775.31;10544076;28;20036;-69
2022/08/06 17:41:54;;;;;;;0.93;0.63;;;;;;;22.19;31.75;100767.72;10550446;28;20134;-70
2022/08/06 17:46:56;;;;;;;1.60;0.40;;;;;;;21.83;32.86;100779.09;10552649;28;20036;-69
2022/08/06 17:51:59;;;;;;;3.35;0.70;;;;;;;21.83;32.95;100771.91;10551555;28;20118;-70
2022/08/06 17:57:01;;;;;;;2.10;0.30;;;;;;;21.56;33.12;100784.41;10552166;28;20046;-70
2022/08/06 18:02:03;;;;;;;4.88;0.60;;;;;;;21.50;33.35;100783.00;10552252;28;20063;-70
2022/08/06 18:07:06;;;;;;;3.95;1.15;;;;;;;21.59;32.99;100795.78;10551566;28;20405;-70
2022/08/06 18:12:17;;;;;;;3.13;0.85;;;;;;;21.41;33.78;100808.53;10551307;28;20390;-68
2022/08/06 18:17:20;;;;;;;11.73;0.60;;;;;;;21.19;33.90;100801.97;10551151;28;20060;-69
2022/08/06 18:22:21;;;;;;;12.85;1.35;;;;;;;21.00;34.38;100805.81;10551288;28;20048;-69
2022/08/06 18:27:26;;;;;;;40.97;5.97;;;;;;;21.07;34.27;100819.63;10549831;28;20036;-68
2022/08/06 18:32:48;;;;;;;6.88;1.92;;;;;;;20.84;34.68;100821.06;10549751;28;20051;-69
2022/08/06 18:37:51;;;;;;;2.22;2.03;;;;;;;20.70;34.94;100815.72;10549754;28;20040;-68
2022/08/06 18:43:04;;;;;;;6.20;5.57;;;;;;;20.59;35.36;100819.06;10548606;28;20048;-70
2022/08/06 18:48:09;;;;;;;9.30;4.30;;;;;;;20.44;35.73;100820.81;10550709;28;20070;-69
2022/08/06 18:53:12;;;;;;;5.68;5.20;;;;;;;20.32;36.02;100818.88;10549023;28;20083;-71
2022/08/06 19:03:40;;;;;;;4.25;1.20;;;;;;;20.13;36.30;100825.31;10428704;28;20048;-73
2022/08/06 19:08:50;;;;;;;1.35;0.70;;;;;;;20.07;36.44;100831.03;10448364;28;20386;-72
2022/08/06 19:13:52;;;;;;;0.77;0.40;;;;;;;20.16;36.56;100833.16;10462306;28;20055;-70
2022/08/06 19:19:14;;;;;;;8.90;1.10;;;;;;;20.00;36.93;100836.78;10445751;28;20131;-72
2022/08/06 19:24:16;;;;;;;1.67;0.60;;;;;;;19.67;37.40;100842.28;10447743;28;20044;-72
2022/08/06 19:29:36;;;;;;;2.40;0.40;;;;;;;19.68;37.21;100844.00;10462217;28;20076;-71
2022/08/06 19:34:59;;;;;;;0.30;0.30;;;;;;;19.64;37.22;100845.97;10447276;28;20040;-71
2022/08/06 19:45:25;;;;;;;0.63;0.32;;;;;;;19.38;37.73;100856.25;10464417;28;20075;-71
2022/08/06 19:50:46;;;;;;;2.65;0.63;;;;;;;19.32;38.16;100864.59;10462500;28;20097;-71
2022/08/06 19:55:51;;;;;;;2.50;1.00;;;;;;;19.34;37.68;100867.16;10461675;28;20037;-71
2022/08/06 20:01:14;;;;;;;5.45;1.10;;;;;;;19.07;38.45;100872.19;10443722;28;20045;-71
2022/08/06 20:06:35;;;;;;;1.17;0.93;;;;;;;18.97;38.41;100871.81;10449169;28;20041;-71
2022/08/06 20:11:57;;;;;;;0.50;0.35;;;;;;;19.04;38.45;100883.03;10461631;28;20049;-71
2022/08/06 20:17:05;;;;;;;1.27;0.88;;;;;;;18.85;38.89;100888.44;10446638;28;20048;-71
2022/08/06 20:22:07;;;;;;;0.82;0.70;;;;;;;18.62;39.19;100892.28;10460345;28;20052;-72
2022/08/06 20:27:10;;;;;;;0.95;0.70;;;;;;;18.71;39.15;100902.50;10462754;28;20454;-72
2022/08/06 20:32:33;;;;;;;1.55;1.13;;;;;;;18.73;39.43;100905.09;10461224;28;20083;-72
2022/08/06 20:37:38;;;;;;;1.35;0.77;;;;;;;18.58;39.34;100910.22;10460878;28;20037;-71
2022/08/06 20:42:53;;;;;;;0.95;0.55;;;;;;;18.53;39.00;100916.72;10461237;28;20102;-72
2022/08/06 20:47:54;;;;;;;1.15;0.60;;;;;;;18.35;39.34;100915.84;10459295;28;20041;-72
2022/08/06 20:52:58;;;;;;;1.88;0.57;;;;;;;18.20;39.84;100917.47;10458553;28;20455;-71
2022/08/06 20:58:02;;;;;;;1.15;0.65;;;;;;;18.22;39.88;100920.06;10438718;28;20106;-72
2022/08/06 21:03:05;;;;;;;0.65;0.45;;;;;;;18.14;39.95;100915.09;10440172;28;20116;-71
2022/08/06 21:08:27;;;;;;;1.35;0.43;;;;;;;18.18;39.56;100921.16;10461205;28;20040;-72
2022/08/06 21:13:32;;;;;;;0.68;0.45;;;;;;;17.90;40.55;100933.13;10462935;28;20044;-71
2022/08/06 21:18:54;;;;;;;1.45;0.40;;;;;;;17.93;40.12;100933.00;10460951;28;20111;-70
2022/08/06 21:24:00;;;;;;;3.85;0.63;;;;;;;18.08;39.77;100936.69;10460420;28;20047;-71
2022/08/06 21:29:06;;;;;;;0.40;0.40;;;;;;;17.89;40.04;100926.09;10440795;28;20203;-71
2022/08/06 21:34:28;;;;;;;0.60;0.30;;;;;;;17.80;40.35;100932.72;10459826;28;20052;-70
2022/08/06 21:39:32;;;;;;;0.50;0.50;;;;;;;17.80;40.25;100939.84;10446252;28;20457;-70
2022/08/06 21:44:53;;;;;;;2.30;0.50;;;;;;;17.90;40.37;100938.44;10439572;28;20096;-71
2022/08/06 21:50:00;;;;;;;1.98;0.40;;;;;;;17.87;40.36;100931.47;10457750;28;20041;-71
2022/08/06 21:55:21;;;;;;;1.23;0.32;;;;;;;17.84;40.17;100936.06;10459410;28;20490;-70
2022/08/06 22:00:45;;;;;;;0.35;0.20;;;;;;;17.90;40.17;100928.66;10457950;28;20041;-70
2022/08/06 22:05:47;;;;;;;0.55;0.28;;;;;;;17.80;40.28;100942.50;10439653;28;20049;-70
2022/08/06 22:11:09;;;;;;;0.30;0.30;;;;;;;17.76;40.54;100943.56;10458443;28;20416;-70
2022/08/06 22:16:30;;;;;;;1.50;0.40;;;;;;;17.59;40.76;100945.19;10425450;28;20041;-70
2022/08/06 22:21:34;;;;;;;0.70;0.30;;;;;;;17.59;41.10;100947.84;10457941;28;20452;-70
2022/08/06 22:26:53;;;;;;;0.88;0.35;;;;;;;17.33;41.98;100945.50;10459857;28;20043;-71
2022/08/06 22:32:00;;;;;;;1.27;0.28;;;;;;;17.18;42.50;100946.19;10430647;28;20049;-71
2022/08/06 22:37:04;;;;;;;0.77;0.40;;;;;;;17.01;43.33;100949.59;10464314;28;20124;-71
2022/08/06 22:42:07;;;;;;;1.33;0.90;;;;;;;16.86;43.10;100943.16;10467019;28;20389;-72
2022/08/06 22:47:09;;;;;;;1.33;0.45;;;;;;;16.86;43.54;100948.47;10446586;28;20045;-71
2022/08/06 22:52:11;;;;;;;2.08;0.63;;;;;;;16.49;44.68;100947.34;10464075;28;20044;-71
2022/08/06 22:57:15;;;;;;;0.73;0.20;;;;;;;16.47;44.01;100948.31;10446058;28;20136;-71
2022/08/06 23:02:19;;;;;;;0.40;0.30;;;;;;;16.59;43.87;100942.50;10447960;28;20076;-72
2022/08/06 23:07:22;;;;;;;1.45;0.55;;;;;;;16.70;44.01;100931.44;10446214;28;20207;-72
2022/08/06 23:12:27;;;;;;;0.80;0.30;;;;;;;16.46;44.28;100941.28;10462876;28;20055;-72
2022/08/06 23:17:37;;;;;;;0.70;0.50;;;;;;;16.60;44.48;100933.59;10462435;28;20094;-72
2022/08/06 23:22:52;;;;;;;1.33;0.40;;;;;;;16.49;44.51;100941.19;10463958;28;20045;-71
2022/08/06 23:27:58;;;;;;;1.50;0.40;;;;;;;16.37;44.63;100938.09;10463507;28;20037;-72
2022/08/06 23:33:00;;;;;;;0.70;0.50;;;;;;;15.97;45.88;100938.84;10444199;28;20145;-72
2022/08/06 23:38:06;;;;;;;1.37;0.60;;;;;;;16.25;45.37;100941.28;10462745;28;20123;-72
2022/08/06 23:43:28;;;;;;;1.13;0.40;;;;;;;16.02;45.94;100939.53;10447294;28;20045;-71
2022/08/06 23:48:35;;;;;;;1.30;0.40;;;;;;;15.82;46.33;100950.94;10444544;28;20051;-71
2022/08/06 23:53:38;;;;;;;0.85;0.80;;;;;;;15.74;46.76;100938.91;10461742;28;20049;-71
2022/08/06 23:59:00;;;;;;;1.63;0.40;;;;;;;15.80;46.86;100939.50;10461588;28;20043;-71
